createdAt,value
2019-02-28T00:02:12.253Z,6.74
2019-02-28T00:04:43.123Z,6.71
2019-02-28T00:07:17.605Z,6.62
2019-02-28T00:09:45.992Z,6.62
2019-02-28T00:12:16.552Z,6.59
2019-02-28T00:14:47.157Z,6.60
2019-02-28T00:17:17.838Z,6.63
2019-02-28T00:19:48.294Z,6.64
2019-02-28T00:22:18.904Z,6.61
2019-02-28T00:24:49.696Z,6.64
2019-02-28T00:27:21.999Z,6.72
2019-02-28T00:29:52.811Z,6.73
2019-02-28T00:32:24.764Z,6.75
2019-02-28T00:34:55.722Z,6.71
2019-02-28T00:37:26.438Z,6.70
2019-02-28T00:39:57.062Z,6.72
2019-02-28T00:42:27.482Z,6.71
2019-02-28T00:44:57.952Z,6.67
2019-02-28T00:47:28.734Z,6.71
2019-02-28T00:49:59.268Z,6.73
2019-02-28T00:52:32.092Z,6.74
2019-02-28T00:55:02.295Z,6.77
2019-02-28T00:57:33.201Z,6.74
2019-02-28T01:00:05.482Z,6.72
2019-02-28T01:02:36.176Z,6.71
2019-02-28T01:05:06.806Z,6.72
2019-02-28T01:07:37.050Z,6.74
2019-02-28T01:10:09.125Z,6.82
2019-02-28T01:12:39.713Z,6.91
2019-02-28T01:15:11.529Z,6.86
2019-02-28T01:17:42.359Z,6.89
2019-02-28T01:20:16.072Z,6.94
2019-02-28T01:22:45.989Z,6.91
2019-02-28T01:25:16.697Z,6.88
2019-02-28T01:27:47.429Z,6.90
2019-02-28T01:30:18.362Z,6.89
2019-02-28T01:32:50.918Z,6.89
2019-02-28T01:35:21.122Z,6.85
2019-02-28T01:37:52.384Z,6.84
2019-02-28T01:40:23.707Z,6.79
2019-02-28T01:42:55.095Z,6.76
2019-02-28T01:45:25.721Z,6.73
2019-02-28T01:47:56.270Z,6.67
2019-02-28T01:50:29.691Z,6.69
2019-02-28T01:52:58.877Z,6.69
2019-02-28T01:55:30.239Z,6.73
2019-02-28T01:58:00.895Z,6.64
2019-02-28T02:00:31.581Z,6.67
2019-02-28T02:03:03.924Z,6.64
2019-02-28T02:05:34.588Z,6.60
2019-02-28T02:08:07.335Z,6.55
2019-02-28T02:10:37.594Z,6.55
2019-02-28T02:13:08.375Z,6.53
2019-02-28T02:15:39.195Z,6.49
2019-02-28T02:18:10.094Z,6.47
2019-02-28T02:20:40.740Z,6.45
2019-02-28T02:23:11.451Z,6.48
2019-02-28T02:25:42.059Z,6.43
2019-02-28T02:28:12.719Z,6.41
2019-02-28T02:30:50.511Z,6.33
2019-02-28T02:33:15.711Z,6.32
2019-02-28T02:35:46.184Z,6.28
2019-02-28T02:38:16.894Z,6.33
2019-02-28T02:40:47.819Z,6.30
2019-02-28T02:43:21.858Z,6.24
2019-02-28T02:45:50.822Z,6.10
2019-02-28T02:48:21.419Z,6.14
2019-02-28T02:50:52.193Z,6.15
2019-02-28T02:53:22.943Z,6.17
2019-02-28T02:55:53.322Z,6.18
2019-02-28T02:58:27.959Z,6.20
2019-02-28T03:00:56.181Z,6.19
2019-02-28T03:03:26.775Z,6.14
2019-02-28T03:05:57.372Z,6.22
2019-02-28T03:08:32.336Z,6.22
2019-02-28T03:11:00.326Z,6.23
2019-02-28T03:13:31.175Z,6.24
2019-02-28T03:16:01.707Z,6.21
2019-02-28T03:18:32.468Z,6.24
2019-02-28T03:21:03.316Z,6.10
2019-02-28T03:23:38.501Z,6.20
2019-02-28T03:26:07.232Z,6.10
2019-02-28T03:28:38.119Z,6.06
2019-02-28T03:31:14.156Z,5.92
2019-02-28T03:33:41.161Z,5.85
2019-02-28T03:36:15.904Z,5.77
2019-02-28T03:38:48.279Z,5.67
2019-02-28T03:41:18.083Z,5.56
2019-02-28T03:43:49.033Z,5.51
2019-02-28T03:46:19.507Z,5.53
2019-02-28T03:48:50.143Z,5.58
2019-02-28T03:51:20.731Z,5.60
2019-02-28T03:53:55.573Z,5.61
2019-02-28T03:56:23.999Z,5.57
2019-02-28T03:58:54.823Z,5.54
2019-02-28T04:01:25.193Z,5.53
2019-02-28T04:03:58.004Z,5.58
2019-02-28T04:06:28.807Z,5.55
2019-02-28T04:09:07.025Z,5.51
2019-02-28T04:11:32.217Z,5.49
2019-02-28T04:14:02.949Z,5.47
2019-02-28T04:16:33.582Z,5.44
2019-02-28T04:19:04.394Z,5.46
2019-02-28T04:21:35.102Z,5.44
2019-02-28T04:24:12.641Z,5.51
2019-02-28T04:26:38.236Z,5.50
2019-02-28T04:29:08.875Z,5.49
2019-02-28T04:31:39.506Z,5.50
2019-02-28T04:34:13.452Z,5.51
2019-02-28T04:36:42.470Z,5.51
2019-02-28T04:39:12.925Z,5.50
2019-02-28T04:41:43.581Z,5.51
2019-02-28T04:44:15.338Z,5.49
2019-02-28T04:46:46.232Z,5.56
2019-02-28T04:49:21.747Z,5.57
2019-02-28T04:51:48.902Z,5.57
2019-02-28T04:54:19.296Z,5.67
2019-02-28T04:56:50.029Z,5.67
2019-02-28T04:59:20.533Z,5.64
2019-02-28T05:01:51.166Z,5.63
2019-02-28T05:04:21.753Z,5.66
2019-02-28T05:06:55.111Z,5.70
2019-02-28T05:09:24.418Z,5.79
2019-02-28T05:11:55.159Z,5.77
2019-02-28T05:14:25.506Z,5.79
2019-02-28T05:16:56.298Z,5.84
2019-02-28T05:19:27.133Z,5.88
2019-02-28T05:21:57.811Z,5.87
2019-02-28T05:24:28.402Z,5.90
2019-02-28T05:27:00.142Z,5.90
2019-02-28T05:29:31.196Z,5.95
2019-02-28T05:32:01.938Z,5.91
2019-02-28T05:34:32.371Z,5.90
2019-02-28T05:37:02.797Z,5.92
2019-02-28T05:39:33.438Z,5.92
2019-02-28T05:42:03.906Z,5.93
2019-02-28T05:44:34.404Z,5.91
2019-02-28T05:47:04.898Z,5.92
2019-02-28T05:49:35.504Z,5.95
2019-02-28T05:52:08.886Z,6.06
2019-02-28T05:54:39.553Z,6.09
2019-02-28T05:57:10.136Z,6.15
2019-02-28T05:59:40.685Z,6.12
2019-02-28T06:02:11.451Z,6.15
2019-02-28T06:04:41.957Z,6.14
2019-02-28T06:07:12.586Z,6.13
2019-02-28T06:09:45.606Z,6.15
2019-02-28T06:12:15.604Z,6.15
2019-02-28T06:14:46.480Z,6.16
2019-02-28T06:17:17.350Z,6.18
2019-02-28T06:19:49.261Z,6.29
2019-02-28T06:22:19.926Z,6.34
2019-02-28T06:24:50.722Z,6.41
2019-02-28T06:27:21.360Z,6.42
2019-02-28T06:29:51.745Z,6.41
2019-02-28T06:32:23.600Z,6.43
2019-02-28T06:34:54.599Z,6.54
2019-02-28T06:37:25.202Z,6.69
2019-02-28T06:39:58.642Z,6.80
2019-02-28T06:42:28.172Z,6.94
2019-02-28T06:45:02.678Z,7.15
2019-02-28T06:47:32.235Z,7.25
2019-02-28T06:50:03.046Z,7.47
2019-02-28T06:52:33.481Z,7.62
2019-02-28T06:55:04.418Z,7.69
2019-02-28T06:57:34.992Z,7.90
2019-02-28T07:00:06.731Z,8.05
2019-02-28T07:02:38.262Z,8.39
2019-02-28T07:05:08.932Z,8.80
2019-02-28T07:07:39.558Z,9.27
2019-02-28T07:10:12.720Z,9.62
2019-02-28T07:12:43.567Z,10.13
2019-02-28T07:15:14.163Z,10.73
2019-02-28T07:17:46.268Z,11.26
2019-02-28T07:20:17.047Z,12.04
2019-02-28T07:22:47.875Z,12.74
2019-02-28T07:25:18.813Z,12.67
2019-02-28T07:27:49.348Z,12.62
2019-02-28T07:30:20.220Z,12.33
2019-02-28T07:32:51.035Z,12.23
2019-02-28T07:35:21.786Z,12.01
2019-02-28T07:37:54.398Z,11.92
2019-02-28T07:40:24.993Z,12.04
2019-02-28T07:43:00.734Z,12.18
2019-02-28T07:45:34.218Z,12.23
2019-02-28T07:48:07.143Z,12.49
2019-02-28T07:50:43.573Z,12.62
2019-02-28T07:53:14.559Z,12.90
2019-02-28T07:55:48.076Z,12.67
2019-02-28T07:58:18.528Z,12.49
2019-02-28T08:00:52.653Z,12.28
2019-02-28T08:03:21.397Z,12.40
2019-02-28T08:05:51.919Z,12.20
2019-02-28T08:08:39.432Z,12.07
2019-02-28T08:11:13.011Z,11.85
2019-02-28T08:13:44.750Z,11.66
2019-02-28T08:16:15.162Z,11.49
2019-02-28T08:18:55.638Z,11.49
2019-02-28T08:21:32.359Z,11.48
2019-02-28T08:24:05.489Z,11.49
2019-02-28T08:26:38.860Z,11.60
2019-02-28T08:29:11.673Z,11.55
2019-02-28T08:31:41.918Z,11.65
2019-02-28T08:34:12.123Z,11.76
2019-02-28T08:36:43.847Z,11.75
2019-02-28T08:39:23.695Z,11.63
2019-02-28T08:41:54.142Z,11.86
2019-02-28T08:44:25.726Z,12.05
2019-02-28T08:46:58.882Z,12.56
2019-02-28T08:49:29.332Z,13.18
2019-02-28T08:52:02.504Z,13.53
2019-02-28T08:54:34.151Z,13.92
2019-02-28T08:57:04.760Z,14.08
2019-02-28T08:59:57.125Z,13.74
2019-02-28T09:02:27.758Z,14.01
2019-02-28T09:04:57.754Z,13.89
2019-02-28T09:07:29.673Z,14.07
2019-02-28T09:10:02.826Z,14.35
2019-02-28T09:12:34.132Z,14.82
2019-02-28T09:15:11.260Z,14.91
2019-02-28T09:17:58.670Z,15.27
2019-02-28T09:20:27.779Z,15.17
2019-02-28T09:23:02.389Z,15.57
2019-02-28T09:25:31.111Z,15.66
2019-02-28T09:28:01.716Z,16.14
2019-02-28T09:30:38.737Z,16.64
2019-02-28T09:33:09.374Z,16.83
2019-02-28T09:35:45.210Z,16.91
2019-02-28T09:38:13.601Z,17.03
2019-02-28T09:40:44.606Z,17.36
2019-02-28T09:43:15.303Z,17.59
2019-02-28T09:45:50.227Z,17.75
2019-02-28T09:48:20.664Z,17.57
2019-02-28T09:50:51.110Z,17.47
2019-02-28T09:53:21.628Z,17.36
2019-02-28T09:55:52.219Z,17.22
2019-02-28T09:58:22.707Z,17.72
2019-02-28T10:00:53.559Z,17.92
2019-02-28T10:03:24.203Z,18.38
2019-02-28T10:05:54.733Z,19.20
2019-02-28T10:08:25.118Z,19.56
2019-02-28T10:10:55.817Z,19.70
2019-02-28T10:13:26.913Z,20.55
2019-02-28T10:15:57.422Z,21.76
2019-02-28T10:18:27.816Z,23.78
2019-02-28T10:20:59.068Z,25.78
2019-02-28T10:23:29.631Z,26.51
2019-02-28T10:26:00.017Z,27.63
2019-02-28T10:28:30.360Z,28.90
2019-02-28T10:31:00.568Z,29.61
2019-02-28T10:33:30.888Z,29.79
2019-02-28T10:36:01.330Z,30.13
2019-02-28T10:38:32.953Z,29.95
2019-02-28T10:41:03.621Z,30.08
2019-02-28T10:43:34.298Z,30.15
2019-02-28T10:46:04.930Z,30.14
2019-02-28T10:48:41.853Z,30.78
2019-02-28T10:51:14.114Z,31.51
2019-02-28T10:53:40.260Z,32.56
2019-02-28T10:56:11.022Z,32.58
2019-02-28T10:58:41.414Z,33.18
2019-02-28T11:01:13.517Z,32.63
2019-02-28T11:03:44.015Z,32.69
2019-02-28T11:06:14.562Z,33.16
2019-02-28T11:08:47.499Z,33.59
2019-02-28T11:11:17.568Z,34.03
2019-02-28T11:13:47.824Z,31.82
2019-02-28T11:16:20.424Z,31.21
2019-02-28T11:18:49.783Z,28.27
2019-02-28T11:21:20.479Z,26.92
2019-02-28T11:23:51.124Z,27.21
2019-02-28T11:26:21.772Z,28.23
2019-02-28T11:28:52.369Z,28.41
2019-02-28T11:31:22.892Z,28.34
2019-02-28T11:33:53.501Z,30.02
2019-02-28T11:36:24.091Z,31.81
2019-02-28T11:38:55.430Z,32.23
2019-02-28T11:41:26.540Z,32.18
2019-02-28T11:43:57.044Z,32.57
2019-02-28T11:46:27.655Z,33.18
2019-02-28T11:48:58.267Z,33.66
2019-02-28T11:51:30.357Z,34.03
2019-02-28T11:54:00.920Z,34.68
2019-02-28T11:56:31.612Z,33.96
2019-02-28T11:59:02.523Z,34.04
2019-02-28T12:01:33.216Z,34.02
2019-02-28T12:04:03.781Z,34.24
2019-02-28T12:06:34.325Z,33.86
2019-02-28T12:09:06.391Z,34.24
2019-02-28T12:11:37.225Z,33.09
2019-02-28T12:14:07.667Z,31.57
2019-02-28T12:16:38.132Z,30.63
2019-02-28T12:19:08.342Z,29.66
2019-02-28T12:21:38.934Z,30.20
2019-02-28T12:24:09.092Z,28.72
2019-02-28T12:26:39.558Z,28.72
2019-02-28T12:29:13.016Z,30.22
2019-02-28T12:31:41.700Z,30.06
2019-02-28T12:34:12.065Z,28.50
2019-02-28T12:36:42.252Z,28.78
2019-02-28T12:39:12.116Z,29.82
2019-02-28T12:41:42.266Z,29.71
2019-02-28T12:44:15.408Z,30.03
2019-02-28T12:46:45.144Z,30.03
2019-02-28T12:49:15.787Z,28.93
2019-02-28T12:51:46.536Z,27.65
2019-02-28T12:54:16.891Z,27.98
2019-02-28T12:56:47.835Z,27.97
2019-02-28T12:59:18.933Z,28.49
2019-02-28T13:01:49.693Z,27.62
2019-02-28T13:04:20.132Z,27.22
2019-02-28T13:06:50.645Z,26.73
2019-02-28T13:09:20.838Z,26.89
2019-02-28T13:11:51.292Z,27.02
2019-02-28T13:14:21.865Z,26.43
2019-02-28T13:16:54.523Z,26.28
2019-02-28T13:19:24.411Z,26.67
2019-02-28T13:21:55.257Z,26.03
2019-02-28T13:24:25.164Z,26.60
2019-02-28T13:26:55.544Z,27.01
2019-02-28T13:29:28.858Z,27.30
2019-02-28T13:32:01.351Z,27.06
2019-02-28T13:34:32.675Z,25.63
2019-02-28T13:37:03.283Z,24.34
2019-02-28T13:39:33.590Z,23.61
2019-02-28T13:42:04.291Z,23.19
2019-02-28T13:44:36.459Z,22.90
2019-02-28T13:47:09.672Z,22.38
2019-02-28T13:49:39.031Z,21.92
2019-02-28T13:52:09.574Z,21.21
2019-02-28T13:54:42.030Z,20.73
2019-02-28T13:57:12.562Z,20.48
2019-02-28T13:59:42.881Z,20.41
2019-02-28T14:02:13.729Z,20.23
2019-02-28T14:04:44.590Z,19.92
2019-02-28T14:07:14.879Z,19.75
2019-02-28T14:09:45.223Z,19.77
2019-02-28T14:12:17.019Z,19.64
2019-02-28T14:14:47.815Z,19.63
2019-02-28T14:17:18.288Z,19.62
2019-02-28T14:19:48.788Z,19.68
2019-02-28T14:22:19.173Z,19.52
2019-02-28T14:24:49.366Z,19.49
2019-02-28T14:27:21.647Z,19.59
2019-02-28T14:29:53.987Z,19.52
2019-02-28T14:32:24.389Z,19.46
2019-02-28T14:34:57.320Z,19.47
2019-02-28T14:37:26.989Z,19.49
2019-02-28T14:39:57.766Z,19.34
2019-02-28T14:42:28.207Z,19.26
2019-02-28T14:44:58.777Z,19.16
2019-02-28T14:47:29.561Z,19.13
2019-02-28T14:49:59.785Z,19.06
2019-02-28T14:52:30.180Z,18.93
2019-02-28T14:55:00.791Z,18.77
2019-02-28T14:57:31.078Z,18.63
2019-02-28T15:00:06.176Z,18.46
2019-02-28T15:02:33.602Z,18.40
2019-02-28T15:05:04.167Z,18.34
2019-02-28T15:07:35.336Z,18.33
2019-02-28T15:10:08.636Z,18.14
2019-02-28T15:12:38.981Z,18.08
2019-02-28T15:15:14.822Z,17.92
2019-02-28T15:17:44.808Z,17.87
2019-02-28T15:20:15.511Z,17.75
2019-02-28T15:22:46.118Z,17.60
2019-02-28T15:25:18.480Z,17.45
2019-02-28T15:27:50.051Z,17.31
2019-02-28T15:30:22.676Z,17.18
2019-02-28T15:32:54.400Z,17.07
2019-02-28T15:35:25.400Z,17.01
2019-02-28T15:37:57.193Z,16.90
2019-02-28T15:40:29.857Z,16.76
2019-02-28T15:43:00.531Z,16.61
2019-02-28T15:45:31.019Z,16.44
2019-02-28T15:48:01.809Z,16.41
2019-02-28T15:50:32.155Z,16.23
2019-02-28T15:53:02.714Z,16.06
2019-02-28T15:55:35.131Z,15.94
2019-02-28T15:58:05.763Z,15.78
2019-02-28T16:00:37.929Z,15.70
2019-02-28T16:03:08.515Z,15.57
2019-02-28T16:05:42.455Z,15.52
2019-02-28T16:08:10.846Z,15.41
2019-02-28T16:10:52.622Z,15.34
2019-02-28T16:13:13.770Z,15.28
2019-02-28T16:15:46.333Z,15.25
2019-02-28T16:18:17.614Z,15.14
2019-02-28T16:20:48.190Z,15.04
2019-02-28T16:23:18.899Z,14.88
2019-02-28T16:25:50.216Z,14.87
2019-02-28T16:28:20.672Z,14.83
2019-02-28T16:30:51.191Z,14.80
2019-02-28T16:33:24.720Z,14.76
2019-02-28T16:35:53.705Z,14.67
2019-02-28T16:38:24.323Z,14.60
2019-02-28T16:40:57.675Z,14.53
2019-02-28T16:43:27.432Z,14.50
2019-02-28T16:45:58.712Z,14.47
2019-02-28T16:48:29.496Z,14.41
2019-02-28T16:50:59.941Z,14.45
2019-02-28T16:53:30.527Z,14.50
2019-02-28T16:56:02.655Z,14.59
2019-02-28T16:58:33.322Z,14.64
2019-02-28T17:01:03.743Z,14.70
2019-02-28T17:03:34.344Z,14.66
2019-02-28T17:06:05.416Z,14.64
2019-02-28T17:08:42.627Z,14.63
2019-02-28T17:11:14.702Z,14.55
2019-02-28T17:13:50.852Z,14.49
2019-02-28T17:16:49.314Z,14.46
2019-02-28T17:19:21.987Z,14.41
2019-02-28T17:21:52.487Z,14.38
2019-02-28T17:24:26.011Z,14.39
2019-02-28T17:27:25.608Z,14.33
2019-02-28T17:30:02.634Z,14.28
2019-02-28T17:32:33.101Z,14.19
2019-02-28T17:35:04.197Z,14.13
2019-02-28T17:37:34.701Z,14.11
2019-02-28T17:40:05.902Z,14.09
2019-02-28T17:42:38.566Z,14.04
2019-02-28T17:45:21.301Z,14.02
2019-02-28T17:48:19.928Z,13.95
2019-02-28T17:51:06.919Z,13.84
2019-02-28T17:54:17.176Z,13.66
2019-02-28T17:57:27.903Z,13.62
2019-02-28T18:00:36.871Z,13.61
2019-02-28T18:03:36.352Z,13.56
2019-02-28T18:06:52.053Z,13.48
2019-02-28T18:09:48.188Z,13.50
2019-02-28T18:12:46.850Z,13.59
2019-02-28T18:15:28.468Z,13.59
2019-02-28T18:18:45.376Z,13.58
2019-02-28T18:21:50.836Z,13.60
2019-02-28T18:24:51.067Z,13.52
2019-02-28T18:27:47.746Z,13.45
2019-02-28T18:30:51.420Z,13.33
2019-02-28T18:33:21.867Z,13.20
2019-02-28T18:35:52.586Z,13.14
2019-02-28T18:38:23.401Z,13.13
2019-02-28T18:40:54.235Z,13.11
2019-02-28T18:43:27.024Z,13.08
2019-02-28T18:45:57.738Z,13.03
2019-02-28T18:48:28.310Z,13.01
2019-02-28T18:50:59.090Z,13.06
2019-02-28T18:53:29.844Z,13.05
2019-02-28T18:55:59.959Z,12.97
2019-02-28T18:58:30.505Z,12.82
2019-02-28T19:01:01.067Z,12.76
2019-02-28T19:03:32.003Z,12.82
2019-02-28T19:06:02.967Z,12.72
2019-02-28T19:08:33.652Z,12.51
2019-02-28T19:11:04.459Z,12.43
2019-02-28T19:13:36.430Z,12.26
2019-02-28T19:16:07.174Z,12.24
2019-02-28T19:18:37.710Z,12.21
2019-02-28T19:21:08.532Z,12.13
2019-02-28T19:23:39.227Z,12.03
2019-02-28T19:26:09.774Z,12.06
2019-02-28T19:28:40.410Z,12.20
2019-02-28T19:31:12.252Z,12.40
2019-02-28T19:33:42.901Z,12.66
2019-02-28T19:36:15.113Z,12.78
2019-02-28T19:38:45.784Z,12.99
2019-02-28T19:41:16.733Z,13.06
2019-02-28T19:43:47.423Z,13.18
2019-02-28T19:46:17.789Z,13.28
2019-02-28T19:48:48.317Z,13.31
2019-02-28T19:51:18.999Z,13.38
2019-02-28T19:53:51.446Z,13.40
2019-02-28T19:56:22.003Z,13.47
2019-02-28T19:58:52.582Z,13.48
2019-02-28T20:01:23.415Z,13.46
2019-02-28T20:03:53.928Z,13.43
2019-02-28T20:06:24.574Z,13.50
2019-02-28T20:08:55.994Z,13.58
2019-02-28T20:11:27.116Z,13.60
2019-02-28T20:13:57.906Z,13.62
2019-02-28T20:16:28.547Z,13.61
2019-02-28T20:18:59.090Z,13.64
2019-02-28T20:21:29.701Z,13.62
2019-02-28T20:24:01.462Z,13.58
2019-02-28T20:26:32.432Z,13.52
2019-02-28T20:29:02.947Z,13.60
2019-02-28T20:31:33.765Z,13.56
2019-02-28T20:34:04.000Z,13.58
2019-02-28T20:36:34.534Z,13.61
2019-02-28T20:39:06.447Z,13.67
2019-02-28T20:41:36.835Z,13.74
2019-02-28T20:44:07.837Z,13.80
2019-02-28T20:46:38.647Z,14.01
2019-02-28T20:49:09.039Z,14.08
2019-02-28T20:51:39.548Z,14.19
2019-02-28T20:54:10.243Z,14.23
2019-02-28T20:56:40.765Z,14.22
2019-02-28T20:59:11.164Z,14.26
2019-02-28T21:01:41.760Z,14.33
2019-02-28T21:04:12.698Z,14.35
2019-02-28T21:06:43.186Z,14.39
2019-02-28T21:09:15.082Z,14.47
2019-02-28T21:11:45.958Z,14.62
2019-02-28T21:14:16.753Z,14.72
2019-02-28T21:16:47.389Z,14.76
2019-02-28T21:19:18.018Z,14.76
2019-02-28T21:21:48.788Z,14.77
2019-02-28T21:24:19.426Z,14.75
2019-02-28T21:26:49.952Z,14.75
2019-02-28T21:29:20.362Z,14.66
2019-02-28T21:31:50.925Z,14.65
2019-02-28T21:34:21.556Z,14.61
2019-02-28T21:36:52.151Z,14.59
2019-02-28T21:39:22.909Z,14.60
2019-02-28T21:41:53.422Z,14.62
2019-02-28T21:44:24.020Z,14.63
2019-02-28T21:46:54.825Z,14.63
2019-02-28T21:49:25.569Z,14.69
2019-02-28T21:51:56.173Z,14.66
2019-02-28T21:54:26.689Z,14.62
2019-02-28T21:56:57.419Z,14.50
2019-02-28T21:59:28.158Z,14.55
2019-02-28T22:01:58.509Z,14.46
2019-02-28T22:04:31.460Z,14.41
2019-02-28T22:07:02.156Z,14.36
2019-02-28T22:09:32.620Z,14.23
2019-02-28T22:12:03.250Z,14.12
2019-02-28T22:14:34.011Z,14.11
2019-02-28T22:17:04.481Z,14.15
2019-02-28T22:19:35.060Z,14.11
2019-02-28T22:22:05.599Z,14.17
2019-02-28T22:24:36.134Z,14.13
2019-02-28T22:27:06.599Z,13.99
2019-02-28T22:29:36.979Z,13.91
2019-02-28T22:32:23.922Z,13.98
2019-02-28T22:34:54.697Z,13.92
2019-02-28T22:37:27.211Z,13.82
2019-02-28T22:39:57.887Z,13.81
2019-02-28T22:42:28.306Z,13.77
2019-02-28T22:44:58.641Z,13.87
2019-02-28T22:47:29.355Z,13.95
2019-02-28T22:49:59.906Z,13.93
2019-02-28T22:52:30.550Z,13.77
2019-02-28T22:55:03.105Z,13.81
2019-02-28T22:57:33.275Z,13.63
2019-02-28T23:00:11.555Z,13.57
2019-02-28T23:02:42.009Z,13.40
2019-02-28T23:05:12.688Z,13.39
2019-02-28T23:07:43.108Z,13.46
2019-02-28T23:10:13.675Z,13.34
2019-02-28T23:12:44.065Z,13.62
2019-02-28T23:15:14.711Z,13.68
2019-02-28T23:17:45.237Z,13.85
2019-02-28T23:20:15.706Z,13.97
2019-02-28T23:22:46.138Z,14.03
2019-02-28T23:25:16.775Z,14.21
2019-02-28T23:27:47.404Z,14.08
2019-02-28T23:30:37.986Z,14.01
2019-02-28T23:33:15.684Z,14.00
2019-02-28T23:35:47.924Z,14.05
2019-02-28T23:38:18.324Z,14.02
2019-02-28T23:40:48.746Z,13.90
2019-02-28T23:43:19.262Z,13.90
2019-02-28T23:45:49.948Z,13.90
2019-02-28T23:48:20.388Z,13.97
2019-02-28T23:50:51.065Z,14.03
2019-02-28T23:53:21.074Z,14.26
2019-02-28T23:55:51.556Z,14.29
2019-02-28T23:58:21.799Z,14.28
